createdAt,value
2022-11-06T00:02:07.784Z,12.77
2022-11-06T00:04:34.547Z,12.79
2022-11-06T00:07:01.685Z,12.80
2022-11-06T00:09:28.432Z,12.81
2022-11-06T00:11:55.271Z,12.81
2022-11-06T00:14:22.095Z,12.83
2022-11-06T00:16:49.126Z,12.85
2022-11-06T00:19:17.251Z,12.85
2022-11-06T00:21:44.930Z,12.85
2022-11-06T00:24:14.053Z,12.86
2022-11-06T00:26:41.982Z,12.86
2022-11-06T00:29:13.661Z,12.87
2022-11-06T00:31:40.393Z,12.85
2022-11-06T00:34:07.615Z,12.83
2022-11-06T00:36:35.223Z,12.82
2022-11-06T00:39:02.514Z,12.78
2022-11-06T00:41:29.877Z,12.78
2022-11-06T00:43:59.817Z,12.75
2022-11-06T00:46:27.179Z,12.72
2022-11-06T00:48:55.247Z,12.71
2022-11-06T00:51:29.418Z,12.72
2022-11-06T00:53:59.620Z,12.71
2022-11-06T00:56:27.385Z,12.70
2022-11-06T00:58:55.050Z,12.74
2022-11-06T01:01:28.427Z,12.77
2022-11-06T01:04:02.570Z,12.77
2022-11-06T01:06:38.480Z,12.77
2022-11-06T01:09:06.975Z,12.79
2022-11-06T01:12:11.172Z,13.15
2022-11-06T01:14:29.389Z,13.17
2022-11-06T01:16:56.493Z,13.05
2022-11-06T01:19:24.391Z,12.97
2022-11-06T01:21:53.209Z,12.91
2022-11-06T01:24:26.841Z,12.87
2022-11-06T01:27:24.415Z,12.85
2022-11-06T01:29:41.442Z,12.82
2022-11-06T01:32:08.158Z,12.81
2022-11-06T01:34:35.134Z,12.81
2022-11-06T01:37:01.913Z,12.80
2022-11-06T01:39:28.683Z,12.81
2022-11-06T01:41:55.719Z,12.82
2022-11-06T01:44:41.345Z,12.82
2022-11-06T01:47:29.070Z,12.80
2022-11-06T01:50:02.476Z,12.80
2022-11-06T01:52:32.129Z,12.78
2022-11-06T01:55:20.794Z,12.76
2022-11-06T01:57:48.636Z,12.76
2022-11-06T02:00:16.198Z,12.79
2022-11-06T02:02:43.088Z,12.80
2022-11-06T02:05:10.781Z,12.83
2022-11-06T02:07:39.985Z,12.82
2022-11-06T02:10:07.382Z,12.81
2022-11-06T02:12:54.636Z,12.81
2022-11-06T02:15:46.778Z,12.82
2022-11-06T02:18:57.453Z,12.81
2022-11-06T02:22:03.282Z,12.80
2022-11-06T02:25:36.055Z,12.79
2022-11-06T02:28:12.849Z,12.74
2022-11-06T02:30:47.699Z,12.74
2022-11-06T02:33:25.856Z,12.74
2022-11-06T02:36:07.108Z,12.74
2022-11-06T02:38:45.144Z,12.75
2022-11-06T02:41:25.776Z,12.77
2022-11-06T02:43:57.365Z,12.76
2022-11-06T02:46:43.617Z,12.77
2022-11-06T02:49:23.847Z,12.77
2022-11-06T02:52:03.685Z,12.78
2022-11-06T02:54:35.256Z,12.80
2022-11-06T02:57:11.500Z,12.84
2022-11-06T03:00:01.279Z,12.87
2022-11-06T03:02:40.751Z,12.89
2022-11-06T03:05:30.989Z,12.90
2022-11-06T03:08:25.603Z,12.90
2022-11-06T03:11:19.954Z,12.91
2022-11-06T03:14:13.245Z,12.91
2022-11-06T03:17:10.953Z,12.92
2022-11-06T03:19:46.503Z,12.95
2022-11-06T03:22:34.077Z,12.99
2022-11-06T03:25:35.263Z,13.01
2022-11-06T03:28:19.737Z,13.01
2022-11-06T03:30:57.080Z,13.04
2022-11-06T03:33:36.161Z,13.08
2022-11-06T03:36:23.201Z,13.11
2022-11-06T03:39:05.280Z,13.10
2022-11-06T03:41:54.063Z,13.12
2022-11-06T03:44:27.874Z,13.13
2022-11-06T03:47:13.112Z,13.16
2022-11-06T03:49:49.365Z,13.17
2022-11-06T03:52:27.158Z,13.18
2022-11-06T03:55:22.508Z,13.22
2022-11-06T03:58:06.437Z,13.23
2022-11-06T04:00:36.712Z,13.24
2022-11-06T04:03:14.526Z,13.27
2022-11-06T04:05:53.472Z,13.30
2022-11-06T04:08:43.435Z,13.30
2022-11-06T04:11:32.595Z,13.33
2022-11-06T04:14:05.326Z,13.35
2022-11-06T04:16:47.869Z,13.39
2022-11-06T04:19:21.843Z,13.42
2022-11-06T04:22:31.974Z,13.44
2022-11-06T04:25:48.232Z,13.43
2022-11-06T04:28:33.060Z,13.44
2022-11-06T04:31:37.343Z,13.45
2022-11-06T04:34:15.208Z,13.44
2022-11-06T04:37:01.487Z,13.44
2022-11-06T04:40:15.116Z,13.44
2022-11-06T04:43:20.364Z,13.40
2022-11-06T04:45:53.484Z,13.37
2022-11-06T04:48:22.795Z,13.36
2022-11-06T04:50:55.670Z,13.37
2022-11-06T04:53:24.210Z,13.38
2022-11-06T04:55:59.761Z,13.40
2022-11-06T04:58:26.472Z,13.41
2022-11-06T05:00:53.333Z,13.42
2022-11-06T05:03:20.144Z,13.44
2022-11-06T05:05:47.060Z,13.47
2022-11-06T05:08:19.527Z,13.50
2022-11-06T05:10:47.234Z,13.51
2022-11-06T05:13:15.412Z,13.55
2022-11-06T05:15:42.463Z,13.57
2022-11-06T05:18:09.231Z,13.59
2022-11-06T05:20:36.505Z,13.64
2022-11-06T05:23:03.911Z,13.66
2022-11-06T05:25:35.381Z,13.68
2022-11-06T05:28:08.228Z,13.68
2022-11-06T05:30:37.468Z,13.68
2022-11-06T05:33:04.393Z,13.67
2022-11-06T05:35:31.115Z,13.68
2022-11-06T05:38:03.222Z,13.69
2022-11-06T05:40:30.726Z,13.67
2022-11-06T05:42:57.529Z,13.66
2022-11-06T05:45:24.291Z,13.66
2022-11-06T05:47:50.992Z,13.66
2022-11-06T05:50:17.841Z,13.67
2022-11-06T05:52:44.606Z,13.66
2022-11-06T05:55:14.663Z,13.65
2022-11-06T05:57:42.617Z,13.66
2022-11-06T06:00:12.225Z,13.65
2022-11-06T06:02:39.112Z,13.64
2022-11-06T06:05:07.397Z,13.63
2022-11-06T06:07:35.290Z,13.61
2022-11-06T06:10:02.254Z,13.59
2022-11-06T06:12:28.944Z,13.57
2022-11-06T06:14:55.728Z,13.55
2022-11-06T06:17:22.421Z,13.52
2022-11-06T06:19:49.125Z,13.49
2022-11-06T06:22:15.888Z,13.47
2022-11-06T06:24:42.791Z,13.42
2022-11-06T06:27:10.157Z,13.39
2022-11-06T06:29:36.857Z,13.37
2022-11-06T06:32:04.942Z,13.34
2022-11-06T06:34:31.675Z,13.30
2022-11-06T06:36:58.482Z,13.28
2022-11-06T06:39:25.186Z,13.28
2022-11-06T06:41:51.966Z,13.27
2022-11-06T06:44:18.684Z,13.28
2022-11-06T06:46:45.359Z,13.31
2022-11-06T06:49:12.285Z,13.36
2022-11-06T06:51:38.988Z,13.41
2022-11-06T06:54:05.881Z,13.46
2022-11-06T06:56:32.611Z,13.55
2022-11-06T06:58:59.316Z,13.71
2022-11-06T07:01:26.300Z,13.90
2022-11-06T07:03:53.236Z,14.20
2022-11-06T07:06:20.365Z,14.54
2022-11-06T07:08:47.511Z,14.95
2022-11-06T07:11:14.494Z,15.39
2022-11-06T07:13:41.211Z,15.87
2022-11-06T07:16:11.567Z,16.37
2022-11-06T07:18:39.978Z,16.93
2022-11-06T07:21:12.696Z,17.52
2022-11-06T07:23:40.433Z,18.11
2022-11-06T07:26:07.798Z,18.67
2022-11-06T07:28:34.964Z,19.23
2022-11-06T07:31:05.954Z,19.75
2022-11-06T07:33:33.959Z,20.26
2022-11-06T07:36:12.894Z,20.82
2022-11-06T07:38:41.863Z,21.33
2022-11-06T07:41:14.277Z,21.70
2022-11-06T07:43:42.227Z,21.78
2022-11-06T07:46:12.550Z,21.66
2022-11-06T07:48:39.634Z,21.66
2022-11-06T07:51:10.046Z,21.92
2022-11-06T07:53:37.913Z,22.31
2022-11-06T07:56:05.230Z,22.76
2022-11-06T07:58:34.093Z,23.33
2022-11-06T08:01:01.027Z,23.82
2022-11-06T08:03:30.190Z,24.18
2022-11-06T08:05:59.086Z,24.29
2022-11-06T08:08:25.894Z,24.14
2022-11-06T08:10:53.708Z,23.84
2022-11-06T08:13:20.776Z,23.52
2022-11-06T08:15:47.564Z,23.13
2022-11-06T08:18:14.551Z,22.77
2022-11-06T08:20:41.530Z,22.40
2022-11-06T08:23:13.054Z,22.10
2022-11-06T08:25:40.611Z,21.84
2022-11-06T08:28:07.296Z,21.69
2022-11-06T08:30:34.264Z,21.57
2022-11-06T08:33:04.946Z,21.56
2022-11-06T08:35:32.097Z,21.71
2022-11-06T08:37:58.842Z,21.91
2022-11-06T08:40:30.669Z,22.02
2022-11-06T08:43:04.226Z,22.20
2022-11-06T08:45:32.256Z,22.56
2022-11-06T08:48:04.219Z,22.80
2022-11-06T08:50:32.623Z,23.04
2022-11-06T08:53:04.222Z,23.23
2022-11-06T08:55:32.008Z,23.30
2022-11-06T08:57:59.161Z,23.22
2022-11-06T09:00:26.029Z,22.96
2022-11-06T09:02:59.553Z,22.59
2022-11-06T09:05:27.578Z,22.23
2022-11-06T09:07:54.427Z,21.74
2022-11-06T09:10:21.185Z,21.28
2022-11-06T09:12:48.217Z,20.81
2022-11-06T09:15:15.050Z,20.44
2022-11-06T09:17:50.040Z,20.15
2022-11-06T09:20:19.743Z,19.97
2022-11-06T09:22:47.707Z,19.93
2022-11-06T09:25:15.559Z,20.16
2022-11-06T09:27:54.452Z,20.68
2022-11-06T09:30:26.727Z,21.43
2022-11-06T09:33:00.592Z,22.37
2022-11-06T09:35:31.114Z,23.50
2022-11-06T09:38:10.326Z,24.78
2022-11-06T09:40:46.983Z,26.12
2022-11-06T09:44:12.408Z,27.64
2022-11-06T09:46:44.831Z,28.79
2022-11-06T09:49:28.968Z,29.14
2022-11-06T09:52:02.119Z,29.00
2022-11-06T09:54:43.511Z,28.60
2022-11-06T09:57:22.159Z,28.10
2022-11-06T09:59:50.708Z,27.69
2022-11-06T10:02:47.182Z,27.21
2022-11-06T10:05:33.947Z,26.77
2022-11-06T10:08:24.828Z,26.45
2022-11-06T10:11:16.209Z,25.99
2022-11-06T10:14:07.754Z,25.69
2022-11-06T10:16:59.688Z,25.33
2022-11-06T10:19:44.170Z,24.90
2022-11-06T10:22:16.452Z,24.43
2022-11-06T10:24:46.834Z,24.03
2022-11-06T10:27:28.139Z,23.66
2022-11-06T10:30:12.880Z,23.31
2022-11-06T10:33:21.440Z,22.94
2022-11-06T10:36:10.037Z,22.64
2022-11-06T10:38:44.118Z,22.43
2022-11-06T10:41:22.397Z,22.22
2022-11-06T10:44:02.540Z,22.00
2022-11-06T10:46:41.072Z,21.83
2022-11-06T10:49:29.740Z,21.70
2022-11-06T10:52:49.067Z,21.98
2022-11-06T10:56:13.748Z,22.09
2022-11-06T10:58:42.614Z,22.08
2022-11-06T11:01:14.539Z,22.15
2022-11-06T11:03:46.755Z,22.28
2022-11-06T11:06:13.575Z,22.42
2022-11-06T11:08:43.101Z,22.55
2022-11-06T11:11:15.740Z,22.73
2022-11-06T11:14:12.054Z,22.93
2022-11-06T11:16:44.247Z,23.10
2022-11-06T11:19:25.108Z,23.15
2022-11-06T11:22:01.288Z,23.20
2022-11-06T11:24:28.642Z,23.32
2022-11-06T11:27:02.743Z,23.51
2022-11-06T11:29:34.088Z,23.72
2022-11-06T11:32:06.931Z,23.95
2022-11-06T11:34:50.315Z,24.14
2022-11-06T11:37:33.197Z,24.33
2022-11-06T11:40:23.300Z,24.36
2022-11-06T11:42:50.571Z,24.26
2022-11-06T11:45:20.610Z,23.99
2022-11-06T11:47:51.555Z,23.69
2022-11-06T11:50:29.842Z,23.41
2022-11-06T11:53:07.090Z,23.05
2022-11-06T11:55:43.240Z,22.69
2022-11-06T11:58:22.688Z,22.29
2022-11-06T12:00:59.650Z,21.88
2022-11-06T12:03:34.070Z,21.54
2022-11-06T12:06:19.220Z,21.18
2022-11-06T12:08:54.981Z,20.92
2022-11-06T12:11:28.789Z,20.70
2022-11-06T12:14:29.576Z,20.42
2022-11-06T12:17:23.721Z,20.10
2022-11-06T12:19:55.718Z,19.89
2022-11-06T12:22:40.627Z,19.73
2022-11-06T12:25:20.842Z,19.62
2022-11-06T12:28:01.276Z,19.53
2022-11-06T12:30:32.813Z,19.48
2022-11-06T12:33:17.108Z,19.45
2022-11-06T12:35:58.796Z,19.46
2022-11-06T12:38:48.902Z,19.38
2022-11-06T12:41:40.516Z,19.31
2022-11-06T12:44:14.899Z,19.29
2022-11-06T12:47:31.247Z,19.30
2022-11-06T12:50:26.973Z,19.36
2022-11-06T12:53:35.833Z,19.35
2022-11-06T12:56:34.876Z,19.29
2022-11-06T12:59:13.264Z,19.25
2022-11-06T13:02:19.209Z,19.22
2022-11-06T13:05:15.131Z,19.21
2022-11-06T13:08:09.505Z,19.16
2022-11-06T13:11:21.863Z,19.12
2022-11-06T13:14:16.203Z,19.05
2022-11-06T13:17:08.916Z,18.93
2022-11-06T13:20:06.088Z,18.85
2022-11-06T13:22:54.496Z,18.77
2022-11-06T13:25:24.753Z,18.66
2022-11-06T13:28:29.159Z,18.55
2022-11-06T13:30:58.982Z,18.45
2022-11-06T13:33:36.309Z,18.31
2022-11-06T13:36:04.049Z,18.19
2022-11-06T13:38:39.549Z,18.08
2022-11-06T13:41:26.758Z,17.89
2022-11-06T13:44:07.628Z,17.72
2022-11-06T13:47:04.651Z,17.57
2022-11-06T13:50:10.422Z,17.48
2022-11-06T13:52:57.624Z,17.45
2022-11-06T13:56:06.512Z,17.42
2022-11-06T13:58:36.192Z,17.42
2022-11-06T14:01:31.302Z,17.41
2022-11-06T14:04:49.685Z,17.41
2022-11-06T14:07:22.109Z,17.39
2022-11-06T14:09:49.561Z,17.41
2022-11-06T14:12:22.465Z,17.41
2022-11-06T14:15:12.297Z,17.41
2022-11-06T14:17:39.143Z,17.36
2022-11-06T14:20:31.605Z,17.33
2022-11-06T14:23:29.071Z,17.28
2022-11-06T14:26:13.255Z,17.21
2022-11-06T14:28:43.328Z,17.15
2022-11-06T14:31:31.294Z,17.11
2022-11-06T14:34:00.435Z,17.04
2022-11-06T14:36:38.220Z,16.98
2022-11-06T14:39:13.096Z,16.88
2022-11-06T14:41:40.216Z,16.77
2022-11-06T14:44:29.201Z,16.67
2022-11-06T14:47:06.896Z,16.52
2022-11-06T14:49:52.395Z,16.33
2022-11-06T14:52:21.457Z,16.17
2022-11-06T14:55:07.886Z,16.02
2022-11-06T14:57:44.515Z,15.84
2022-11-06T15:01:00.135Z,15.68
2022-11-06T15:03:35.680Z,15.51
2022-11-06T15:06:17.297Z,15.39
2022-11-06T15:08:46.815Z,15.29
2022-11-06T15:11:34.817Z,15.18
2022-11-06T15:14:06.323Z,15.08
2022-11-06T15:17:02.811Z,14.98
2022-11-06T15:19:47.600Z,14.90
2022-11-06T15:22:38.091Z,14.82
2022-11-06T15:25:10.428Z,14.71
2022-11-06T15:28:00.258Z,14.63
2022-11-06T15:30:29.464Z,14.50
2022-11-06T15:32:57.522Z,14.42
2022-11-06T15:35:31.094Z,14.32
2022-11-06T15:38:10.971Z,14.20
2022-11-06T15:40:40.716Z,14.07
2022-11-06T15:43:26.114Z,13.94
2022-11-06T15:46:14.972Z,13.80
2022-11-06T15:48:41.718Z,13.67
2022-11-06T15:51:26.321Z,13.58
2022-11-06T15:53:54.360Z,13.50
2022-11-06T15:56:29.337Z,13.47
2022-11-06T15:59:13.330Z,13.44
2022-11-06T16:01:41.774Z,13.39
2022-11-06T16:04:19.297Z,13.37
2022-11-06T16:06:49.908Z,13.36
2022-11-06T16:09:24.892Z,13.36
2022-11-06T16:11:53.587Z,13.36
2022-11-06T16:14:22.148Z,13.35
2022-11-06T16:16:56.965Z,13.35
2022-11-06T16:19:26.620Z,13.31
2022-11-06T16:22:17.870Z,13.28
2022-11-06T16:24:52.770Z,13.24
2022-11-06T16:27:22.640Z,13.24
2022-11-06T16:29:57.696Z,13.21
2022-11-06T16:32:29.336Z,13.18
2022-11-06T16:34:56.132Z,13.17
2022-11-06T16:37:43.106Z,13.14
2022-11-06T16:40:54.055Z,13.12
2022-11-06T16:43:23.144Z,13.08
2022-11-06T16:46:07.708Z,13.07
2022-11-06T16:48:40.943Z,13.06
2022-11-06T16:51:28.861Z,13.03
2022-11-06T16:54:04.742Z,13.03
2022-11-06T16:56:34.571Z,13.03
2022-11-06T16:59:08.698Z,13.00
2022-11-06T17:01:45.322Z,12.99
2022-11-06T17:04:26.246Z,12.97
2022-11-06T17:06:54.228Z,12.96
2022-11-06T17:09:28.805Z,12.96
2022-11-06T17:11:58.717Z,12.94
2022-11-06T17:14:26.549Z,12.94
2022-11-06T17:16:58.108Z,12.93
2022-11-06T17:19:26.651Z,12.93
2022-11-06T17:21:54.014Z,12.93
2022-11-06T17:24:37.646Z,12.94
2022-11-06T17:27:04.937Z,12.93
2022-11-06T17:29:33.459Z,12.93
2022-11-06T17:32:00.300Z,12.93
2022-11-06T17:34:27.006Z,12.94
2022-11-06T17:36:53.904Z,12.92
2022-11-06T17:39:20.762Z,12.92
2022-11-06T17:41:47.598Z,12.91
2022-11-06T17:44:14.523Z,12.90
2022-11-06T17:46:46.960Z,12.87
2022-11-06T17:49:17.940Z,12.86
2022-11-06T17:51:49.841Z,12.85
2022-11-06T17:54:26.126Z,12.84
2022-11-06T17:56:55.459Z,12.83
2022-11-06T17:59:23.951Z,12.84
2022-11-06T18:01:51.927Z,12.86
2022-11-06T18:04:21.385Z,12.89
2022-11-06T18:06:52.061Z,12.91
2022-11-06T18:09:21.499Z,12.93
2022-11-06T18:11:53.885Z,12.96
2022-11-06T18:14:22.544Z,12.98
2022-11-06T18:16:50.094Z,13.01
2022-11-06T18:19:22.464Z,13.04
2022-11-06T18:21:49.627Z,13.07
2022-11-06T18:24:16.546Z,13.13
2022-11-06T18:26:43.545Z,13.19
2022-11-06T18:29:11.883Z,13.23
2022-11-06T18:31:39.034Z,13.26
2022-11-06T18:34:07.293Z,13.33
2022-11-06T18:36:36.627Z,13.38
2022-11-06T18:39:05.212Z,13.43
2022-11-06T18:41:32.921Z,13.47
2022-11-06T18:44:00.544Z,13.54
2022-11-06T18:46:28.122Z,13.60
2022-11-06T18:48:58.059Z,13.66
2022-11-06T18:51:36.197Z,13.73
2022-11-06T18:54:07.797Z,13.81
2022-11-06T18:56:36.303Z,13.88
2022-11-06T18:59:10.238Z,13.93
2022-11-06T19:01:37.114Z,13.99
2022-11-06T19:04:05.363Z,14.04
2022-11-06T19:06:32.804Z,14.11
2022-11-06T19:08:59.636Z,14.17
2022-11-06T19:11:26.565Z,14.20
2022-11-06T19:13:53.738Z,14.22
2022-11-06T19:16:20.689Z,14.27
2022-11-06T19:21:30.677Z,14.30
2022-11-06T19:24:04.447Z,14.31
2022-11-06T19:26:33.229Z,14.32
2022-11-06T19:29:00.757Z,14.35
2022-11-06T19:31:29.806Z,14.37
2022-11-06T19:33:58.895Z,14.44
2022-11-06T19:36:26.979Z,14.46
2022-11-06T19:38:54.696Z,14.48
2022-11-06T19:41:21.475Z,14.49
2022-11-06T19:43:48.192Z,14.50
2022-11-06T19:46:23.378Z,14.53
2022-11-06T19:48:51.882Z,14.54
2022-11-06T19:51:18.851Z,14.56
2022-11-06T19:53:45.710Z,14.55
2022-11-06T19:56:16.323Z,14.59
2022-11-06T19:58:43.414Z,14.60
2022-11-06T20:01:15.574Z,14.61
2022-11-06T20:03:42.990Z,14.62
2022-11-06T20:06:10.879Z,14.66
2022-11-06T20:08:38.748Z,14.67
2022-11-06T20:11:14.077Z,14.69
2022-11-06T20:13:43.582Z,14.71
2022-11-06T20:16:14.989Z,14.73
2022-11-06T20:18:41.809Z,14.75
2022-11-06T20:21:11.790Z,14.76
2022-11-06T20:23:39.189Z,14.79
2022-11-06T20:26:07.319Z,14.80
2022-11-06T20:28:34.666Z,14.83
2022-11-06T20:31:11.248Z,14.85
2022-11-06T20:33:38.989Z,14.88
2022-11-06T20:36:13.980Z,14.91
2022-11-06T20:38:41.181Z,14.90
2022-11-06T20:41:08.192Z,14.90
2022-11-06T20:43:34.964Z,14.90
2022-11-06T20:46:03.664Z,14.92
2022-11-06T20:48:32.025Z,14.97
2022-11-06T20:51:01.185Z,15.00
2022-11-06T20:53:28.362Z,15.02
2022-11-06T20:56:00.910Z,15.04
2022-11-06T20:58:29.317Z,15.05
2022-11-06T21:01:18.046Z,15.07
2022-11-06T21:03:46.657Z,15.07
2022-11-06T21:06:14.330Z,15.09
2022-11-06T21:08:42.397Z,15.10
2022-11-06T21:11:20.703Z,15.13
2022-11-06T21:13:51.923Z,15.14
2022-11-06T21:16:31.667Z,15.15
2022-11-06T21:19:00.358Z,15.13
2022-11-06T21:21:32.817Z,15.14
2022-11-06T21:24:01.869Z,15.12
2022-11-06T21:26:32.986Z,15.14
2022-11-06T21:29:03.686Z,15.15
2022-11-06T21:31:32.429Z,15.17
2022-11-06T21:34:01.930Z,15.19
2022-11-06T21:36:33.054Z,15.19
2022-11-06T21:39:10.159Z,15.20
2022-11-06T21:41:38.523Z,15.20
2022-11-06T21:44:07.609Z,15.21
2022-11-06T21:46:34.651Z,15.24
2022-11-06T21:49:01.609Z,15.26
2022-11-06T21:51:31.700Z,15.28
2022-11-06T21:54:18.287Z,15.27
2022-11-06T21:56:49.295Z,15.25
2022-11-06T21:59:19.786Z,15.26
2022-11-06T22:01:46.975Z,15.28
2022-11-06T22:04:13.879Z,15.31
2022-11-06T22:06:42.793Z,15.33
2022-11-06T22:09:11.853Z,15.35
2022-11-06T22:11:43.188Z,15.36
2022-11-06T22:14:16.700Z,15.37
2022-11-06T22:16:46.818Z,15.36
2022-11-06T22:19:14.803Z,15.36
2022-11-06T22:21:42.212Z,15.34
2022-11-06T22:24:12.395Z,15.31
2022-11-06T22:26:39.635Z,15.29
2022-11-06T22:29:11.364Z,15.27
2022-11-06T22:31:38.401Z,15.25
2022-11-06T22:34:05.150Z,15.24
2022-11-06T22:36:32.576Z,15.22
2022-11-06T22:39:03.237Z,15.22
2022-11-06T22:41:29.932Z,15.23
2022-11-06T22:44:00.371Z,15.25
2022-11-06T22:46:28.832Z,15.26
2022-11-06T22:48:56.397Z,15.26
2022-11-06T22:51:29.835Z,15.27
2022-11-06T22:53:57.218Z,15.29
2022-11-06T22:56:26.367Z,15.30
2022-11-06T22:59:05.527Z,15.31
2022-11-06T23:01:37.446Z,15.29
2022-11-06T23:04:14.552Z,15.30
2022-11-06T23:06:43.101Z,15.29
2022-11-06T23:09:09.844Z,15.30
2022-11-06T23:11:36.559Z,15.32
2022-11-06T23:14:08.613Z,15.30
2022-11-06T23:16:55.855Z,15.29
2022-11-06T23:19:23.575Z,15.24
2022-11-06T23:21:50.817Z,15.21
2022-11-06T23:24:17.645Z,15.19
2022-11-06T23:26:44.800Z,15.18
2022-11-06T23:29:12.025Z,15.17
2022-11-06T23:31:38.839Z,15.15
2022-11-06T23:34:05.595Z,15.13
2022-11-06T23:36:32.300Z,15.13
2022-11-06T23:38:59.153Z,15.12
2022-11-06T23:41:45.512Z,15.12
2022-11-06T23:44:33.382Z,15.09
2022-11-06T23:47:01.216Z,15.04
2022-11-06T23:49:28.272Z,15.02
2022-11-06T23:51:55.034Z,15.00
2022-11-06T23:54:21.824Z,15.00
2022-11-06T23:56:48.516Z,14.99
2022-11-06T23:59:15.464Z,14.99
